sensor_id;sensor_type;location;lat;lon;timestamp;P1;durP1;ratioP1;P2;durP2;ratioP2
59756;SDS011;45631;51.962;5.974;2023-07-20T00:00:34;9.35;;;4.50;;
59756;SDS011;45631;51.962;5.974;2023-07-20T00:03:11;10.32;;;5.10;;
59756;SDS011;45631;51.962;5.974;2023-07-20T00:05:45;10.93;;;6.13;;
59756;SDS011;45631;51.962;5.974;2023-07-20T00:08:13;12.00;;;6.82;;
59756;SDS011;45631;51.962;5.974;2023-07-20T00:10:41;8.35;;;6.03;;
59756;SDS011;45631;51.962;5.974;2023-07-20T00:13:11;12.43;;;6.78;;
59756;SDS011;45631;51.962;5.974;2023-07-20T00:15:39;11.57;;;6.00;;
59756;SDS011;45631;51.962;5.974;2023-07-20T00:18:10;9.45;;;5.90;;
59756;SDS011;45631;51.962;5.974;2023-07-20T00:20:39;9.60;;;5.88;;
59756;SDS011;45631;51.962;5.974;2023-07-20T00:23:08;9.38;;;5.55;;
59756;SDS011;45631;51.962;5.974;2023-07-20T00:25:37;11.05;;;5.70;;
59756;SDS011;45631;51.962;5.974;2023-07-20T00:28:05;9.13;;;5.82;;
59756;SDS011;45631;51.962;5.974;2023-07-20T00:30:33;10.70;;;5.18;;
59756;SDS011;45631;51.962;5.974;2023-07-20T00:33:01;9.32;;;5.60;;
59756;SDS011;45631;51.962;5.974;2023-07-20T00:35:29;9.98;;;5.45;;
59756;SDS011;45631;51.962;5.974;2023-07-20T00:37:57;9.00;;;5.40;;
59756;SDS011;45631;51.962;5.974;2023-07-20T00:40:27;8.32;;;5.13;;
59756;SDS011;45631;51.962;5.974;2023-07-20T00:42:55;11.65;;;5.40;;
59756;SDS011;45631;51.962;5.974;2023-07-20T00:45:26;10.55;;;4.90;;
59756;SDS011;45631;51.962;5.974;2023-07-20T00:47:55;8.40;;;4.80;;
59756;SDS011;45631;51.962;5.974;2023-07-20T00:50:24;9.98;;;5.38;;
59756;SDS011;45631;51.962;5.974;2023-07-20T00:52:55;8.25;;;5.05;;
59756;SDS011;45631;51.962;5.974;2023-07-20T00:55:24;7.53;;;4.97;;
59756;SDS011;45631;51.962;5.974;2023-07-20T00:57:54;8.20;;;5.43;;
59756;SDS011;45631;51.962;5.974;2023-07-20T01:00:22;9.43;;;5.25;;
59756;SDS011;45631;51.962;5.974;2023-07-20T01:02:50;7.35;;;4.18;;
59756;SDS011;45631;51.962;5.974;2023-07-20T01:05:19;7.55;;;4.82;;
59756;SDS011;45631;51.962;5.974;2023-07-20T01:07:51;8.48;;;4.70;;
59756;SDS011;45631;51.962;5.974;2023-07-20T01:10:24;9.57;;;4.88;;
59756;SDS011;45631;51.962;5.974;2023-07-20T01:12:58;11.07;;;5.40;;
59756;SDS011;45631;51.962;5.974;2023-07-20T01:15:28;8.23;;;4.95;;
59756;SDS011;45631;51.962;5.974;2023-07-20T01:17:56;8.15;;;4.70;;
59756;SDS011;45631;51.962;5.974;2023-07-20T01:20:24;10.20;;;5.10;;
59756;SDS011;45631;51.962;5.974;2023-07-20T01:23:08;9.57;;;4.63;;
59756;SDS011;45631;51.962;5.974;2023-07-20T01:25:57;9.13;;;5.20;;
59756;SDS011;45631;51.962;5.974;2023-07-20T01:31:45;7.82;;;4.40;;
59756;SDS011;45631;51.962;5.974;2023-07-20T01:34:18;8.48;;;5.03;;
59756;SDS011;45631;51.962;5.974;2023-07-20T01:36:50;7.63;;;4.75;;
59756;SDS011;45631;51.962;5.974;2023-07-20T01:39:20;7.43;;;4.80;;
59756;SDS011;45631;51.962;5.974;2023-07-20T01:41:49;10.40;;;5.07;;
59756;SDS011;45631;51.962;5.974;2023-07-20T01:44:17;8.30;;;4.63;;
59756;SDS011;45631;51.962;5.974;2023-07-20T01:46:47;9.75;;;5.20;;
59756;SDS011;45631;51.962;5.974;2023-07-20T01:49:15;10.98;;;4.60;;
59756;SDS011;45631;51.962;5.974;2023-07-20T01:51:43;8.10;;;4.90;;
59756;SDS011;45631;51.962;5.974;2023-07-20T01:54:14;8.80;;;5.05;;
59756;SDS011;45631;51.962;5.974;2023-07-20T01:56:43;9.82;;;4.60;;
59756;SDS011;45631;51.962;5.974;2023-07-20T01:59:11;8.00;;;4.30;;
59756;SDS011;45631;51.962;5.974;2023-07-20T02:01:39;8.38;;;3.97;;
59756;SDS011;45631;51.962;5.974;2023-07-20T02:04:11;7.35;;;4.07;;
59756;SDS011;45631;51.962;5.974;2023-07-20T02:06:39;7.40;;;4.00;;
59756;SDS011;45631;51.962;5.974;2023-07-20T02:09:08;7.47;;;3.83;;
59756;SDS011;45631;51.962;5.974;2023-07-20T02:11:36;6.18;;;3.25;;
59756;SDS011;45631;51.962;5.974;2023-07-20T02:14:04;7.18;;;3.30;;
59756;SDS011;45631;51.962;5.974;2023-07-20T02:16:32;5.32;;;3.25;;
59756;SDS011;45631;51.962;5.974;2023-07-20T02:19:01;7.45;;;3.40;;
59756;SDS011;45631;51.962;5.974;2023-07-20T02:21:31;6.13;;;2.70;;
59756;SDS011;45631;51.962;5.974;2023-07-20T02:24:00;5.68;;;2.65;;
59756;SDS011;45631;51.962;5.974;2023-07-20T02:26:28;5.90;;;2.75;;
59756;SDS011;45631;51.962;5.974;2023-07-20T02:28:56;5.85;;;2.47;;
59756;SDS011;45631;51.962;5.974;2023-07-20T02:31:24;4.82;;;2.50;;
59756;SDS011;45631;51.962;5.974;2023-07-20T02:33:52;4.53;;;2.20;;
59756;SDS011;45631;51.962;5.974;2023-07-20T02:36:24;4.20;;;2.10;;
59756;SDS011;45631;51.962;5.974;2023-07-20T02:38:53;4.22;;;2.28;;
59756;SDS011;45631;51.962;5.974;2023-07-20T02:41:24;5.28;;;2.05;;
59756;SDS011;45631;51.962;5.974;2023-07-20T02:43:52;3.33;;;2.00;;
59756;SDS011;45631;51.962;5.974;2023-07-20T02:46:20;5.15;;;2.20;;
59756;SDS011;45631;51.962;5.974;2023-07-20T02:48:48;2.78;;;1.90;;
59756;SDS011;45631;51.962;5.974;2023-07-20T02:51:17;3.40;;;1.60;;
59756;SDS011;45631;51.962;5.974;2023-07-20T02:53:45;3.70;;;2.05;;
59756;SDS011;45631;51.962;5.974;2023-07-20T02:56:14;5.05;;;2.08;;
59756;SDS011;45631;51.962;5.974;2023-07-20T02:58:44;3.58;;;1.95;;
59756;SDS011;45631;51.962;5.974;2023-07-20T03:01:13;3.75;;;1.80;;
59756;SDS011;45631;51.962;5.974;2023-07-20T03:03:42;3.35;;;1.73;;
59756;SDS011;45631;51.962;5.974;2023-07-20T03:06:13;3.25;;;2.28;;
59756;SDS011;45631;51.962;5.974;2023-07-20T03:08:42;5.20;;;2.13;;
59756;SDS011;45631;51.962;5.974;2023-07-20T03:11:15;4.28;;;2.08;;
59756;SDS011;45631;51.962;5.974;2023-07-20T03:13:43;4.28;;;2.15;;
59756;SDS011;45631;51.962;5.974;2023-07-20T03:16:13;4.32;;;2.20;;
59756;SDS011;45631;51.962;5.974;2023-07-20T03:18:46;5.30;;;2.80;;
59756;SDS011;45631;51.962;5.974;2023-07-20T03:21:14;4.38;;;2.20;;
59756;SDS011;45631;51.962;5.974;2023-07-20T03:23:42;3.65;;;2.30;;
59756;SDS011;45631;51.962;5.974;2023-07-20T03:26:11;5.80;;;2.60;;
59756;SDS011;45631;51.962;5.974;2023-07-20T03:28:40;3.88;;;2.75;;
59756;SDS011;45631;51.962;5.974;2023-07-20T03:31:08;4.72;;;2.22;;
59756;SDS011;45631;51.962;5.974;2023-07-20T03:33:37;4.50;;;2.30;;
59756;SDS011;45631;51.962;5.974;2023-07-20T03:36:05;4.93;;;2.22;;
59756;SDS011;45631;51.962;5.974;2023-07-20T03:38:34;5.82;;;2.50;;
59756;SDS011;45631;51.962;5.974;2023-07-20T03:41:02;4.70;;;2.53;;
59756;SDS011;45631;51.962;5.974;2023-07-20T03:43:33;4.05;;;1.88;;
59756;SDS011;45631;51.962;5.974;2023-07-20T03:46:03;4.00;;;2.10;;
59756;SDS011;45631;51.962;5.974;2023-07-20T03:48:33;4.60;;;2.03;;
59756;SDS011;45631;51.962;5.974;2023-07-20T03:51:02;3.67;;;2.00;;
59756;SDS011;45631;51.962;5.974;2023-07-20T03:53:30;3.72;;;1.85;;
59756;SDS011;45631;51.962;5.974;2023-07-20T03:55:59;3.00;;;1.60;;
59756;SDS011;45631;51.962;5.974;2023-07-20T03:58:27;3.13;;;1.80;;
59756;SDS011;45631;51.962;5.974;2023-07-20T04:00:56;3.45;;;1.70;;
59756;SDS011;45631;51.962;5.974;2023-07-20T04:03:26;3.25;;;1.70;;
59756;SDS011;45631;51.962;5.974;2023-07-20T04:05:57;2.50;;;1.58;;
59756;SDS011;45631;51.962;5.974;2023-07-20T04:08:25;4.10;;;1.80;;
59756;SDS011;45631;51.962;5.974;2023-07-20T04:10:54;2.28;;;1.80;;
59756;SDS011;45631;51.962;5.974;2023-07-20T04:13:22;2.33;;;1.63;;
59756;SDS011;45631;51.962;5.974;2023-07-20T04:15:50;2.08;;;1.60;;
59756;SDS011;45631;51.962;5.974;2023-07-20T04:18:18;2.05;;;1.55;;
59756;SDS011;45631;51.962;5.974;2023-07-20T04:20:48;3.05;;;1.50;;
59756;SDS011;45631;51.962;5.974;2023-07-20T04:23:16;2.65;;;1.80;;
59756;SDS011;45631;51.962;5.974;2023-07-20T04:25:44;4.07;;;2.22;;
59756;SDS011;45631;51.962;5.974;2023-07-20T04:28:13;3.80;;;2.10;;
59756;SDS011;45631;51.962;5.974;2023-07-20T04:30:42;3.47;;;1.90;;
59756;SDS011;45631;51.962;5.974;2023-07-20T04:33:10;4.70;;;2.10;;
59756;SDS011;45631;51.962;5.974;2023-07-20T04:35:44;4.00;;;1.90;;
59756;SDS011;45631;51.962;5.974;2023-07-20T04:38:15;3.50;;;1.73;;
59756;SDS011;45631;51.962;5.974;2023-07-20T04:40:45;5.03;;;2.10;;
59756;SDS011;45631;51.962;5.974;2023-07-20T04:43:13;3.42;;;2.08;;
59756;SDS011;45631;51.962;5.974;2023-07-20T04:45:42;3.40;;;2.08;;
59756;SDS011;45631;51.962;5.974;2023-07-20T04:48:10;3.53;;;1.92;;
59756;SDS011;45631;51.962;5.974;2023-07-20T04:50:40;3.28;;;1.90;;
59756;SDS011;45631;51.962;5.974;2023-07-20T04:53:08;5.22;;;2.00;;
59756;SDS011;45631;51.962;5.974;2023-07-20T04:55:39;2.63;;;1.75;;
59756;SDS011;45631;51.962;5.974;2023-07-20T04:58:07;4.65;;;2.05;;
59756;SDS011;45631;51.962;5.974;2023-07-20T05:00:37;3.85;;;1.83;;
59756;SDS011;45631;51.962;5.974;2023-07-20T05:03:05;2.45;;;1.60;;
59756;SDS011;45631;51.962;5.974;2023-07-20T05:05:34;2.78;;;1.83;;
59756;SDS011;45631;51.962;5.974;2023-07-20T05:08:03;3.85;;;1.42;;
59756;SDS011;45631;51.962;5.974;2023-07-20T05:10:32;3.17;;;1.40;;
59756;SDS011;45631;51.962;5.974;2023-07-20T05:13:01;3.15;;;1.67;;
59756;SDS011;45631;51.962;5.974;2023-07-20T05:15:29;3.17;;;1.90;;
59756;SDS011;45631;51.962;5.974;2023-07-20T05:18:00;2.63;;;1.50;;
59756;SDS011;45631;51.962;5.974;2023-07-20T05:20:28;3.78;;;1.70;;
59756;SDS011;45631;51.962;5.974;2023-07-20T05:22:58;3.70;;;2.00;;
59756;SDS011;45631;51.962;5.974;2023-07-20T05:25:27;2.78;;;1.63;;
59756;SDS011;45631;51.962;5.974;2023-07-20T05:27:57;3.70;;;1.70;;
59756;SDS011;45631;51.962;5.974;2023-07-20T05:30:26;4.03;;;1.48;;
59756;SDS011;45631;51.962;5.974;2023-07-20T05:32:55;3.33;;;1.40;;
59756;SDS011;45631;51.962;5.974;2023-07-20T05:35:25;3.08;;;1.55;;
59756;SDS011;45631;51.962;5.974;2023-07-20T05:37:53;2.72;;;1.40;;
59756;SDS011;45631;51.962;5.974;2023-07-20T05:40:22;3.22;;;1.30;;
59756;SDS011;45631;51.962;5.974;2023-07-20T05:42:50;2.70;;;1.30;;
59756;SDS011;45631;51.962;5.974;2023-07-20T05:45:20;2.90;;;1.20;;
59756;SDS011;45631;51.962;5.974;2023-07-20T05:47:49;1.67;;;1.00;;
59756;SDS011;45631;51.962;5.974;2023-07-20T05:50:18;3.20;;;1.30;;
59756;SDS011;45631;51.962;5.974;2023-07-20T05:52:46;3.00;;;1.23;;
59756;SDS011;45631;51.962;5.974;2023-07-20T05:55:14;2.65;;;1.17;;
59756;SDS011;45631;51.962;5.974;2023-07-20T05:57:43;2.42;;;1.20;;
59756;SDS011;45631;51.962;5.974;2023-07-20T06:00:12;2.13;;;1.05;;
59756;SDS011;45631;51.962;5.974;2023-07-20T06:02:41;1.98;;;1.10;;
59756;SDS011;45631;51.962;5.974;2023-07-20T06:05:10;2.03;;;1.00;;
59756;SDS011;45631;51.962;5.974;2023-07-20T06:07:39;2.72;;;1.10;;
59756;SDS011;45631;51.962;5.974;2023-07-20T06:10:07;3.20;;;1.08;;
59756;SDS011;45631;51.962;5.974;2023-07-20T06:12:35;3.78;;;1.27;;
59756;SDS011;45631;51.962;5.974;2023-07-20T06:15:04;2.75;;;1.00;;
59756;SDS011;45631;51.962;5.974;2023-07-20T06:17:33;3.80;;;1.10;;
59756;SDS011;45631;51.962;5.974;2023-07-20T06:20:05;5.15;;;1.10;;
59756;SDS011;45631;51.962;5.974;2023-07-20T06:22:35;2.42;;;1.00;;
59756;SDS011;45631;51.962;5.974;2023-07-20T06:25:04;3.72;;;0.98;;
59756;SDS011;45631;51.962;5.974;2023-07-20T06:27:33;3.40;;;0.90;;
59756;SDS011;45631;51.962;5.974;2023-07-20T06:30:01;1.88;;;0.88;;
59756;SDS011;45631;51.962;5.974;2023-07-20T06:32:30;4.20;;;1.05;;
59756;SDS011;45631;51.962;5.974;2023-07-20T06:34:59;2.78;;;0.90;;
59756;SDS011;45631;51.962;5.974;2023-07-20T06:37:27;2.55;;;0.82;;
59756;SDS011;45631;51.962;5.974;2023-07-20T06:39:56;2.35;;;1.08;;
59756;SDS011;45631;51.962;5.974;2023-07-20T06:42:27;2.85;;;0.95;;
59756;SDS011;45631;51.962;5.974;2023-07-20T06:45:16;2.88;;;0.80;;
59756;SDS011;45631;51.962;5.974;2023-07-20T06:47:44;2.88;;;1.10;;
59756;SDS011;45631;51.962;5.974;2023-07-20T06:50:12;2.25;;;0.75;;
59756;SDS011;45631;51.962;5.974;2023-07-20T06:52:43;1.65;;;0.85;;
59756;SDS011;45631;51.962;5.974;2023-07-20T06:55:16;3.63;;;1.20;;
59756;SDS011;45631;51.962;5.974;2023-07-20T06:57:47;2.47;;;0.70;;
59756;SDS011;45631;51.962;5.974;2023-07-20T07:00:15;3.30;;;0.90;;
59756;SDS011;45631;51.962;5.974;2023-07-20T07:02:44;1.35;;;0.80;;
59756;SDS011;45631;51.962;5.974;2023-07-20T07:05:19;3.22;;;0.82;;
59756;SDS011;45631;51.962;5.974;2023-07-20T07:07:48;2.85;;;0.70;;
59756;SDS011;45631;51.962;5.974;2023-07-20T07:10:18;1.92;;;0.75;;
59756;SDS011;45631;51.962;5.974;2023-07-20T07:12:46;4.45;;;1.00;;
59756;SDS011;45631;51.962;5.974;2023-07-20T07:15:14;4.05;;;0.60;;
59756;SDS011;45631;51.962;5.974;2023-07-20T07:17:43;2.33;;;0.70;;
59756;SDS011;45631;51.962;5.974;2023-07-20T07:20:11;1.27;;;0.80;;
59756;SDS011;45631;51.962;5.974;2023-07-20T07:22:46;4.15;;;0.80;;
59756;SDS011;45631;51.962;5.974;2023-07-20T07:25:17;1.48;;;0.80;;
59756;SDS011;45631;51.962;5.974;2023-07-20T07:27:49;1.13;;;0.65;;
59756;SDS011;45631;51.962;5.974;2023-07-20T07:30:18;2.33;;;0.80;;
59756;SDS011;45631;51.962;5.974;2023-07-20T07:32:47;0.85;;;0.68;;
59756;SDS011;45631;51.962;5.974;2023-07-20T07:35:15;3.60;;;0.85;;
59756;SDS011;45631;51.962;5.974;2023-07-20T07:37:43;1.55;;;0.75;;
59756;SDS011;45631;51.962;5.974;2023-07-20T07:40:34;2.10;;;0.90;;
59756;SDS011;45631;51.962;5.974;2023-07-20T07:43:02;1.30;;;0.70;;
59756;SDS011;45631;51.962;5.974;2023-07-20T07:45:33;4.20;;;0.80;;
59756;SDS011;45631;51.962;5.974;2023-07-20T07:48:03;3.58;;;0.70;;
59756;SDS011;45631;51.962;5.974;2023-07-20T07:50:31;1.58;;;0.73;;
59756;SDS011;45631;51.962;5.974;2023-07-20T07:53:00;3.15;;;1.05;;
59756;SDS011;45631;51.962;5.974;2023-07-20T07:55:28;2.30;;;0.95;;
59756;SDS011;45631;51.962;5.974;2023-07-20T07:57:58;0.93;;;0.40;;
59756;SDS011;45631;51.962;5.974;2023-07-20T08:00:26;1.33;;;0.50;;
59756;SDS011;45631;51.962;5.974;2023-07-20T08:02:54;3.90;;;0.80;;
59756;SDS011;45631;51.962;5.974;2023-07-20T08:05:22;1.25;;;0.50;;
59756;SDS011;45631;51.962;5.974;2023-07-20T08:07:51;1.50;;;0.60;;
59756;SDS011;45631;51.962;5.974;2023-07-20T08:10:19;1.02;;;0.50;;
59756;SDS011;45631;51.962;5.974;2023-07-20T08:12:47;0.85;;;0.60;;
59756;SDS011;45631;51.962;5.974;2023-07-20T08:15:17;0.77;;;0.50;;
59756;SDS011;45631;51.962;5.974;2023-07-20T08:17:45;0.90;;;0.57;;
59756;SDS011;45631;51.962;5.974;2023-07-20T08:20:15;0.95;;;0.68;;
59756;SDS011;45631;51.962;5.974;2023-07-20T08:22:44;1.40;;;0.75;;
59756;SDS011;45631;51.962;5.974;2023-07-20T08:25:14;1.63;;;0.60;;
59756;SDS011;45631;51.962;5.974;2023-07-20T08:27:42;1.08;;;0.50;;
59756;SDS011;45631;51.962;5.974;2023-07-20T08:30:12;2.22;;;0.60;;
59756;SDS011;45631;51.962;5.974;2023-07-20T08:32:42;1.33;;;0.60;;
59756;SDS011;45631;51.962;5.974;2023-07-20T08:35:11;2.45;;;0.65;;
59756;SDS011;45631;51.962;5.974;2023-07-20T08:37:41;2.38;;;0.68;;
59756;SDS011;45631;51.962;5.974;2023-07-20T08:40:10;3.25;;;0.82;;
59756;SDS011;45631;51.962;5.974;2023-07-20T08:42:39;3.03;;;0.73;;
59756;SDS011;45631;51.962;5.974;2023-07-20T08:45:09;1.77;;;0.77;;
59756;SDS011;45631;51.962;5.974;2023-07-20T08:47:40;1.40;;;0.63;;
59756;SDS011;45631;51.962;5.974;2023-07-20T08:52:41;1.77;;;0.73;;
59756;SDS011;45631;51.962;5.974;2023-07-20T08:55:10;0.63;;;0.57;;
59756;SDS011;45631;51.962;5.974;2023-07-20T08:57:40;1.80;;;0.57;;
59756;SDS011;45631;51.962;5.974;2023-07-20T09:00:10;3.40;;;0.73;;
59756;SDS011;45631;51.962;5.974;2023-07-20T09:02:41;1.00;;;0.55;;
59756;SDS011;45631;51.962;5.974;2023-07-20T09:05:13;3.08;;;0.80;;
59756;SDS011;45631;51.962;5.974;2023-07-20T09:07:41;2.03;;;0.85;;
59756;SDS011;45631;51.962;5.974;2023-07-20T09:10:09;0.55;;;0.50;;
59756;SDS011;45631;51.962;5.974;2023-07-20T09:12:40;1.65;;;0.60;;
59756;SDS011;45631;51.962;5.974;2023-07-20T09:15:09;1.35;;;0.77;;
59756;SDS011;45631;51.962;5.974;2023-07-20T09:17:39;1.23;;;0.60;;
59756;SDS011;45631;51.962;5.974;2023-07-20T09:20:09;0.68;;;0.60;;
59756;SDS011;45631;51.962;5.974;2023-07-20T09:22:38;3.08;;;0.68;;
59756;SDS011;45631;51.962;5.974;2023-07-20T09:25:07;2.60;;;0.80;;
59756;SDS011;45631;51.962;5.974;2023-07-20T09:27:38;1.30;;;0.43;;
59756;SDS011;45631;51.962;5.974;2023-07-20T09:30:10;1.08;;;0.63;;
59756;SDS011;45631;51.962;5.974;2023-07-20T09:32:56;2.08;;;0.60;;
59756;SDS011;45631;51.962;5.974;2023-07-20T09:35:28;3.10;;;0.93;;
59756;SDS011;45631;51.962;5.974;2023-07-20T09:38:08;1.63;;;0.70;;
59756;SDS011;45631;51.962;5.974;2023-07-20T09:40:39;0.95;;;0.60;;
59756;SDS011;45631;51.962;5.974;2023-07-20T09:43:11;0.68;;;0.60;;
59756;SDS011;45631;51.962;5.974;2023-07-20T09:45:42;1.02;;;0.50;;
59756;SDS011;45631;51.962;5.974;2023-07-20T09:48:14;2.38;;;0.50;;
59756;SDS011;45631;51.962;5.974;2023-07-20T09:50:50;2.67;;;0.60;;
59756;SDS011;45631;51.962;5.974;2023-07-20T09:53:19;2.50;;;0.73;;
59756;SDS011;45631;51.962;5.974;2023-07-20T09:55:47;3.03;;;0.70;;
59756;SDS011;45631;51.962;5.974;2023-07-20T09:58:17;1.35;;;0.50;;
59756;SDS011;45631;51.962;5.974;2023-07-20T10:00:45;1.65;;;0.63;;
59756;SDS011;45631;51.962;5.974;2023-07-20T10:03:22;3.33;;;0.80;;
59756;SDS011;45631;51.962;5.974;2023-07-20T10:06:07;2.70;;;0.80;;
59756;SDS011;45631;51.962;5.974;2023-07-20T10:08:38;1.75;;;0.60;;
59756;SDS011;45631;51.962;5.974;2023-07-20T10:11:11;2.80;;;0.77;;
59756;SDS011;45631;51.962;5.974;2023-07-20T10:13:43;3.47;;;0.70;;
59756;SDS011;45631;51.962;5.974;2023-07-20T10:16:14;0.82;;;0.60;;
59756;SDS011;45631;51.962;5.974;2023-07-20T10:18:51;3.67;;;0.80;;
59756;SDS011;45631;51.962;5.974;2023-07-20T10:21:29;1.58;;;0.60;;
59756;SDS011;45631;51.962;5.974;2023-07-20T10:26:31;3.40;;;0.80;;
59756;SDS011;45631;51.962;5.974;2023-07-20T10:29:03;1.75;;;0.73;;
59756;SDS011;45631;51.962;5.974;2023-07-20T10:31:32;2.05;;;0.70;;
59756;SDS011;45631;51.962;5.974;2023-07-20T10:34:01;3.33;;;1.00;;
59756;SDS011;45631;51.962;5.974;2023-07-20T10:36:32;1.33;;;0.70;;
59756;SDS011;45631;51.962;5.974;2023-07-20T10:39:00;1.35;;;0.68;;
59756;SDS011;45631;51.962;5.974;2023-07-20T10:41:31;2.42;;;1.05;;
59756;SDS011;45631;51.962;5.974;2023-07-20T10:44:02;1.90;;;0.80;;
59756;SDS011;45631;51.962;5.974;2023-07-20T10:46:35;0.80;;;0.65;;
59756;SDS011;45631;51.962;5.974;2023-07-20T10:49:12;1.67;;;0.75;;
59756;SDS011;45631;51.962;5.974;2023-07-20T10:51:44;0.77;;;0.70;;
59756;SDS011;45631;51.962;5.974;2023-07-20T10:57:21;2.22;;;0.70;;
59756;SDS011;45631;51.962;5.974;2023-07-20T11:00:07;2.92;;;0.77;;
59756;SDS011;45631;51.962;5.974;2023-07-20T11:02:44;2.40;;;0.90;;
59756;SDS011;45631;51.962;5.974;2023-07-20T11:05:32;2.15;;;0.88;;
59756;SDS011;45631;51.962;5.974;2023-07-20T11:08:10;1.67;;;0.70;;
59756;SDS011;45631;51.962;5.974;2023-07-20T11:10:39;2.03;;;1.05;;
59756;SDS011;45631;51.962;5.974;2023-07-20T11:13:15;1.80;;;0.93;;
59756;SDS011;45631;51.962;5.974;2023-07-20T11:15:44;3.28;;;0.68;;
59756;SDS011;45631;51.962;5.974;2023-07-20T11:18:14;2.28;;;0.70;;
59756;SDS011;45631;51.962;5.974;2023-07-20T11:20:42;3.03;;;0.70;;
59756;SDS011;45631;51.962;5.974;2023-07-20T11:23:12;1.05;;;0.60;;
59756;SDS011;45631;51.962;5.974;2023-07-20T11:25:40;1.65;;;0.82;;
59756;SDS011;45631;51.962;5.974;2023-07-20T11:28:09;1.48;;;0.75;;
59756;SDS011;45631;51.962;5.974;2023-07-20T11:30:37;1.42;;;0.70;;
59756;SDS011;45631;51.962;5.974;2023-07-20T11:33:08;0.93;;;0.68;;
59756;SDS011;45631;51.962;5.974;2023-07-20T11:35:41;2.03;;;0.80;;
59756;SDS011;45631;51.962;5.974;2023-07-20T11:38:12;1.13;;;0.70;;
59756;SDS011;45631;51.962;5.974;2023-07-20T11:40:43;1.38;;;0.60;;
59756;SDS011;45631;51.962;5.974;2023-07-20T11:43:14;0.60;;;0.40;;
59756;SDS011;45631;51.962;5.974;2023-07-20T11:45:45;2.53;;;0.70;;
59756;SDS011;45631;51.962;5.974;2023-07-20T11:48:16;4.13;;;0.90;;
59756;SDS011;45631;51.962;5.974;2023-07-20T11:50:44;2.08;;;0.63;;
59756;SDS011;45631;51.962;5.974;2023-07-20T11:53:15;2.85;;;0.85;;
59756;SDS011;45631;51.962;5.974;2023-07-20T11:55:47;1.75;;;0.80;;
59756;SDS011;45631;51.962;5.974;2023-07-20T11:58:15;1.75;;;0.73;;
59756;SDS011;45631;51.962;5.974;2023-07-20T12:00:44;1.63;;;0.77;;
59756;SDS011;45631;51.962;5.974;2023-07-20T12:03:13;2.25;;;0.70;;
59756;SDS011;45631;51.962;5.974;2023-07-20T12:05:41;4.13;;;0.80;;
59756;SDS011;45631;51.962;5.974;2023-07-20T12:08:27;2.15;;;0.80;;
59756;SDS011;45631;51.962;5.974;2023-07-20T12:10:56;3.70;;;1.00;;
59756;SDS011;45631;51.962;5.974;2023-07-20T12:13:34;1.13;;;0.90;;
59756;SDS011;45631;51.962;5.974;2023-07-20T12:16:10;2.63;;;1.00;;
59756;SDS011;45631;51.962;5.974;2023-07-20T12:18:39;1.63;;;0.65;;
59756;SDS011;45631;51.962;5.974;2023-07-20T12:21:08;1.45;;;0.90;;
59756;SDS011;45631;51.962;5.974;2023-07-20T12:23:39;1.80;;;0.90;;
59756;SDS011;45631;51.962;5.974;2023-07-20T12:26:08;2.75;;;0.82;;
59756;SDS011;45631;51.962;5.974;2023-07-20T12:28:41;3.03;;;0.95;;
59756;SDS011;45631;51.962;5.974;2023-07-20T12:31:09;2.93;;;0.90;;
59756;SDS011;45631;51.962;5.974;2023-07-20T12:33:39;2.25;;;1.20;;
59756;SDS011;45631;51.962;5.974;2023-07-20T12:36:08;1.58;;;0.90;;
59756;SDS011;45631;51.962;5.974;2023-07-20T12:38:38;1.55;;;0.88;;
59756;SDS011;45631;51.962;5.974;2023-07-20T12:41:09;1.70;;;1.00;;
59756;SDS011;45631;51.962;5.974;2023-07-20T12:43:40;2.00;;;1.00;;
59756;SDS011;45631;51.962;5.974;2023-07-20T12:46:09;2.88;;;1.10;;
59756;SDS011;45631;51.962;5.974;2023-07-20T12:48:40;2.45;;;0.80;;
59756;SDS011;45631;51.962;5.974;2023-07-20T12:51:13;1.35;;;0.82;;
59756;SDS011;45631;51.962;5.974;2023-07-20T12:53:46;1.63;;;0.70;;
59756;SDS011;45631;51.962;5.974;2023-07-20T12:56:14;4.03;;;0.80;;
59756;SDS011;45631;51.962;5.974;2023-07-20T12:58:45;2.42;;;0.90;;
59756;SDS011;45631;51.962;5.974;2023-07-20T13:01:15;0.95;;;0.75;;
59756;SDS011;45631;51.962;5.974;2023-07-20T13:03:46;1.90;;;1.00;;
59756;SDS011;45631;51.962;5.974;2023-07-20T13:06:17;1.95;;;0.80;;
59756;SDS011;45631;51.962;5.974;2023-07-20T13:08:50;2.22;;;0.90;;
59756;SDS011;45631;51.962;5.974;2023-07-20T13:11:22;0.85;;;0.77;;
59756;SDS011;45631;51.962;5.974;2023-07-20T13:13:51;2.03;;;0.80;;
59756;SDS011;45631;51.962;5.974;2023-07-20T13:16:19;2.13;;;0.90;;
59756;SDS011;45631;51.962;5.974;2023-07-20T13:18:47;1.95;;;0.80;;
59756;SDS011;45631;51.962;5.974;2023-07-20T13:21:16;2.58;;;0.82;;
59756;SDS011;45631;51.962;5.974;2023-07-20T13:23:47;1.80;;;0.68;;
59756;SDS011;45631;51.962;5.974;2023-07-20T13:26:16;1.98;;;0.90;;
59756;SDS011;45631;51.962;5.974;2023-07-20T13:28:45;1.65;;;0.73;;
59756;SDS011;45631;51.962;5.974;2023-07-20T13:31:14;1.52;;;0.85;;
59756;SDS011;45631;51.962;5.974;2023-07-20T13:33:44;0.93;;;0.60;;
59756;SDS011;45631;51.962;5.974;2023-07-20T13:36:22;1.63;;;0.85;;
59756;SDS011;45631;51.962;5.974;2023-07-20T13:38:50;3.17;;;0.70;;
59756;SDS011;45631;51.962;5.974;2023-07-20T13:41:21;1.17;;;0.70;;
59756;SDS011;45631;51.962;5.974;2023-07-20T13:43:50;1.38;;;0.70;;
59756;SDS011;45631;51.962;5.974;2023-07-20T13:46:23;0.68;;;0.50;;
59756;SDS011;45631;51.962;5.974;2023-07-20T13:48:54;1.92;;;0.70;;
59756;SDS011;45631;51.962;5.974;2023-07-20T13:51:24;3.33;;;0.70;;
59756;SDS011;45631;51.962;5.974;2023-07-20T13:53:53;0.85;;;0.75;;
59756;SDS011;45631;51.962;5.974;2023-07-20T13:56:24;1.60;;;0.70;;
59756;SDS011;45631;51.962;5.974;2023-07-20T13:58:52;1.33;;;0.70;;
59756;SDS011;45631;51.962;5.974;2023-07-20T14:01:24;0.63;;;0.60;;
59756;SDS011;45631;51.962;5.974;2023-07-20T14:03:55;3.20;;;0.90;;
59756;SDS011;45631;51.962;5.974;2023-07-20T14:06:30;2.47;;;0.70;;
59756;SDS011;45631;51.962;5.974;2023-07-20T14:08:59;1.50;;;0.90;;
59756;SDS011;45631;51.962;5.974;2023-07-20T14:11:31;3.30;;;0.80;;
59756;SDS011;45631;51.962;5.974;2023-07-20T14:16:30;3.05;;;0.95;;
59756;SDS011;45631;51.962;5.974;2023-07-20T14:19:00;3.80;;;0.73;;
59756;SDS011;45631;51.962;5.974;2023-07-20T14:21:30;1.50;;;0.70;;
59756;SDS011;45631;51.962;5.974;2023-07-20T14:23:58;2.30;;;0.90;;
59756;SDS011;45631;51.962;5.974;2023-07-20T14:26:32;6.47;;;1.33;;
59756;SDS011;45631;51.962;5.974;2023-07-20T14:29:04;1.67;;;0.80;;
59756;SDS011;45631;51.962;5.974;2023-07-20T14:31:32;2.17;;;0.90;;
59756;SDS011;45631;51.962;5.974;2023-07-20T14:34:00;4.95;;;0.80;;
59756;SDS011;45631;51.962;5.974;2023-07-20T14:36:28;0.90;;;0.60;;
59756;SDS011;45631;51.962;5.974;2023-07-20T14:39:00;4.55;;;1.00;;
59756;SDS011;45631;51.962;5.974;2023-07-20T14:41:29;1.42;;;0.80;;
59756;SDS011;45631;51.962;5.974;2023-07-20T14:43:58;1.27;;;0.75;;
59756;SDS011;45631;51.962;5.974;2023-07-20T14:46:27;2.45;;;1.05;;
59756;SDS011;45631;51.962;5.974;2023-07-20T14:48:55;2.63;;;1.23;;
59756;SDS011;45631;51.962;5.974;2023-07-20T14:51:23;1.98;;;0.90;;
59756;SDS011;45631;51.962;5.974;2023-07-20T14:54:03;1.90;;;0.70;;
59756;SDS011;45631;51.962;5.974;2023-07-20T14:56:33;3.10;;;1.10;;
59756;SDS011;45631;51.962;5.974;2023-07-20T14:59:05;3.53;;;0.98;;
59756;SDS011;45631;51.962;5.974;2023-07-20T15:01:33;2.83;;;0.80;;
59756;SDS011;45631;51.962;5.974;2023-07-20T15:04:02;2.55;;;1.10;;
59756;SDS011;45631;51.962;5.974;2023-07-20T15:06:31;1.50;;;0.70;;
59756;SDS011;45631;51.962;5.974;2023-07-20T15:08:59;2.03;;;0.85;;
59756;SDS011;45631;51.962;5.974;2023-07-20T15:11:27;2.78;;;0.90;;
59756;SDS011;45631;51.962;5.974;2023-07-20T15:13:55;1.75;;;0.80;;
59756;SDS011;45631;51.962;5.974;2023-07-20T15:16:25;0.98;;;0.63;;
59756;SDS011;45631;51.962;5.974;2023-07-20T15:18:54;3.63;;;0.77;;